createdAt,value
2016-06-12T00:00:01.980Z,0
2016-06-12T00:01:01.983Z,0
2016-06-12T00:02:01.970Z,0
2016-06-12T00:03:01.942Z,0
2016-06-12T00:04:01.929Z,0
2016-06-12T00:05:03.120Z,0
2016-06-12T00:06:01.982Z,0
2016-06-12T00:07:01.970Z,0
2016-06-12T00:08:01.973Z,0
2016-06-12T00:09:02.001Z,0
2016-06-12T00:10:02.028Z,0
2016-06-12T00:11:02.084Z,0
2016-06-12T00:12:02.141Z,0
2016-06-12T00:13:02.151Z,0
2016-06-12T00:14:02.176Z,0
2016-06-12T00:15:02.192Z,0
2016-06-12T00:16:02.194Z,0
2016-06-12T00:17:02.319Z,0
2016-06-12T00:18:02.258Z,0
2016-06-12T00:19:02.285Z,0
2016-06-12T00:20:02.855Z,0
2016-06-12T00:21:02.270Z,0
2016-06-12T00:22:02.246Z,0
2016-06-12T00:23:02.333Z,0
2016-06-12T00:24:02.292Z,0
2016-06-12T00:25:02.297Z,0
2016-06-12T00:26:02.145Z,0
2016-06-12T00:27:02.400Z,0
2016-06-12T00:28:02.327Z,0
2016-06-12T00:29:02.378Z,0
2016-06-12T00:30:02.304Z,0
2016-06-12T00:31:02.370Z,0
2016-06-12T00:32:02.405Z,0
2016-06-12T00:33:02.361Z,0
2016-06-12T00:34:02.302Z,0
2016-06-12T00:35:02.134Z,0
2016-06-12T00:36:02.762Z,0
2016-06-12T00:37:02.328Z,0
2016-06-12T00:38:02.362Z,0
2016-06-12T00:39:02.381Z,0
2016-06-12T00:40:02.385Z,0
2016-06-12T00:41:02.356Z,0
2016-06-12T00:42:02.422Z,0
2016-06-12T00:43:02.393Z,0
2016-06-12T00:44:02.366Z,0
2016-06-12T00:45:02.369Z,0
2016-06-12T00:46:02.403Z,0
2016-06-12T00:47:02.406Z,0
2016-06-12T00:48:02.393Z,0
2016-06-12T00:49:02.396Z,0
2016-06-12T00:50:02.494Z,0
2016-06-12T00:51:02.324Z,0
2016-06-12T00:52:02.563Z,0
2016-06-12T00:53:02.408Z,0
2016-06-12T00:54:02.412Z,0
2016-06-12T00:55:02.400Z,0
2016-06-12T00:56:02.370Z,0
2016-06-12T00:57:02.499Z,0
2016-06-12T00:58:02.409Z,0
2016-06-12T00:59:02.443Z,0
2016-06-12T01:00:02.430Z,0
2016-06-12T01:01:02.449Z,0
2016-06-12T01:02:02.108Z,0
2016-06-12T01:03:02.408Z,0
2016-06-12T01:04:02.412Z,0
2016-06-12T01:05:02.836Z,0
2016-06-12T01:06:02.448Z,0
2016-06-12T01:07:02.467Z,0
2016-06-12T01:08:02.471Z,0
2016-06-12T01:09:02.426Z,0
2016-06-12T01:10:02.461Z,0
2016-06-12T01:11:02.464Z,0
2016-06-12T01:12:02.513Z,0
2016-06-12T01:13:02.455Z,0
2016-06-12T01:14:02.442Z,0
2016-06-12T01:15:02.336Z,0
2016-06-12T01:16:02.465Z,0
2016-06-12T01:17:02.498Z,0
2016-06-12T01:18:02.471Z,0
2016-06-12T01:19:02.488Z,0
2016-06-12T01:20:03.569Z,0
2016-06-12T01:21:02.588Z,0
2016-06-12T01:22:02.622Z,0
2016-06-12T01:23:02.454Z,0
2016-06-12T01:24:02.520Z,0
2016-06-12T01:25:02.507Z,0
2016-06-12T01:26:02.526Z,0
2016-06-12T01:27:02.560Z,0
2016-06-12T01:28:02.501Z,0
2016-06-12T01:29:02.504Z,0
2016-06-12T01:30:02.507Z,0
2016-06-12T01:31:02.495Z,0
2016-06-12T01:32:02.560Z,0
2016-06-12T01:33:02.516Z,0
2016-06-12T01:34:02.520Z,0
2016-06-12T01:35:02.538Z,0
2016-06-12T01:36:02.510Z,0
2016-06-12T01:37:02.513Z,0
2016-06-12T01:38:02.532Z,0
2016-06-12T01:39:02.503Z,0
2016-06-12T01:40:02.381Z,0
2016-06-12T01:41:02.542Z,0
2016-06-12T01:42:02.544Z,0
2016-06-12T01:43:02.562Z,0
2016-06-12T01:44:02.503Z,0
2016-06-12T01:45:02.507Z,0
2016-06-12T01:46:02.525Z,0
2016-06-12T01:47:02.559Z,0
2016-06-12T01:48:02.563Z,0
2016-06-12T01:49:02.550Z,0
2016-06-12T01:50:02.709Z,0
2016-06-12T01:51:04.103Z,0
2016-06-12T01:52:02.684Z,0
2016-06-12T01:53:02.421Z,0
2016-06-12T01:54:02.596Z,0
2016-06-12T01:55:02.585Z,0
2016-06-12T01:56:02.571Z,0
2016-06-12T01:57:02.543Z,0
2016-06-12T01:58:02.562Z,0
2016-06-12T01:59:02.549Z,0
2016-06-12T02:00:02.600Z,0
2016-06-12T02:01:02.587Z,0
2016-06-12T02:02:02.559Z,0
2016-06-12T02:03:02.577Z,0
2016-06-12T02:04:02.643Z,0
2016-06-12T02:05:02.912Z,0
2016-06-12T02:06:02.524Z,0
2016-06-12T02:07:02.605Z,0
2016-06-12T02:08:02.608Z,0
2016-06-12T02:09:02.675Z,0
2016-06-12T02:10:02.459Z,0
2016-06-12T02:11:02.649Z,0
2016-06-12T02:12:02.684Z,0
2016-06-12T02:13:02.608Z,0
2016-06-12T02:14:02.627Z,0
2016-06-12T02:15:02.614Z,0
2016-06-12T02:16:02.461Z,0
2016-06-12T02:17:02.605Z,0
2016-06-12T02:18:02.498Z,0
2016-06-12T02:19:02.595Z,0
2016-06-12T02:20:02.504Z,0
2016-06-12T02:21:02.617Z,0
2016-06-12T02:22:03.152Z,0
2016-06-12T02:23:02.654Z,0
2016-06-12T02:24:02.688Z,0
2016-06-12T02:25:02.691Z,0
2016-06-12T02:26:02.633Z,0
2016-06-12T02:27:02.620Z,0
2016-06-12T02:28:02.669Z,0
2016-06-12T02:29:02.673Z,0
2016-06-12T02:30:02.645Z,0
2016-06-12T02:31:02.632Z,0
2016-06-12T02:32:02.682Z,0
2016-06-12T02:33:02.670Z,0
2016-06-12T02:34:02.501Z,0
2016-06-12T02:35:02.660Z,0
2016-06-12T02:36:03.460Z,0
2016-06-12T02:37:02.713Z,0
2016-06-12T02:38:02.654Z,0
2016-06-12T02:39:02.704Z,0
2016-06-12T02:40:02.707Z,0
2016-06-12T02:41:02.568Z,0
2016-06-12T02:42:02.666Z,0
2016-06-12T02:43:02.700Z,0
2016-06-12T02:44:02.547Z,0
2016-06-12T02:45:02.691Z,0
2016-06-12T02:46:02.709Z,0
2016-06-12T02:47:02.791Z,0
2016-06-12T02:48:02.669Z,0
2016-06-12T02:49:02.672Z,0
2016-06-12T02:50:02.721Z,0
2016-06-12T02:51:03.881Z,0
2016-06-12T02:52:02.713Z,0
2016-06-12T02:53:02.715Z,0
2016-06-12T02:54:02.702Z,0
2016-06-12T02:55:02.737Z,0
2016-06-12T02:56:02.709Z,0
2016-06-12T02:57:02.711Z,0
2016-06-12T02:58:02.715Z,0
2016-06-12T02:59:02.687Z,0
2016-06-12T03:00:02.737Z,0
2016-06-12T03:01:02.724Z,0
2016-06-12T03:02:02.758Z,0
2016-06-12T03:03:02.590Z,0
2016-06-12T03:04:02.749Z,0
2016-06-12T03:05:02.722Z,0
2016-06-12T03:06:03.145Z,0
2016-06-12T03:07:02.820Z,0
2016-06-12T03:08:02.746Z,0
2016-06-12T03:09:02.749Z,0
2016-06-12T03:10:02.767Z,0
2016-06-12T03:11:02.755Z,0
2016-06-12T03:12:02.821Z,0
2016-06-12T03:13:02.777Z,0
2016-06-12T03:14:02.749Z,0
2016-06-12T03:15:02.720Z,0
2016-06-12T03:16:02.802Z,0
2016-06-12T03:17:02.867Z,0
2016-06-12T03:18:02.761Z,0
2016-06-12T03:19:02.764Z,0
2016-06-12T03:20:02.782Z,0
2016-06-12T03:21:03.083Z,0
2016-06-12T03:22:02.819Z,0
2016-06-12T03:23:02.791Z,0
2016-06-12T03:24:02.764Z,0
2016-06-12T03:25:02.611Z,0
2016-06-12T03:26:02.801Z,0
2016-06-12T03:27:02.867Z,0
2016-06-12T03:28:02.807Z,0
2016-06-12T03:29:02.826Z,0
2016-06-12T03:30:02.783Z,0
2016-06-12T03:31:02.801Z,0
2016-06-12T03:32:02.804Z,0
2016-06-12T03:33:02.854Z,0
2016-06-12T03:34:02.811Z,0
2016-06-12T03:35:02.798Z,0
2016-06-12T03:36:03.441Z,0
2016-06-12T03:37:02.726Z,0
2016-06-12T03:38:02.807Z,0
2016-06-12T03:39:02.841Z,0
2016-06-12T03:40:02.844Z,0
2016-06-12T03:41:02.816Z,0
2016-06-12T03:42:02.851Z,0
2016-06-12T03:43:02.822Z,0
2016-06-12T03:44:02.841Z,0
2016-06-12T03:45:02.844Z,0
2016-06-12T03:46:02.847Z,5
2016-06-12T03:47:02.819Z,5
2016-06-12T03:48:02.822Z,5
2016-06-12T03:49:02.840Z,5
2016-06-12T03:50:02.828Z,5
2016-06-12T03:51:02.925Z,5
2016-06-12T03:52:02.756Z,5
2016-06-12T03:53:02.837Z,5
2016-06-12T03:54:02.840Z,5
2016-06-12T03:55:02.860Z,5
2016-06-12T03:56:02.878Z,5
2016-06-12T03:57:02.865Z,5
2016-06-12T03:58:02.899Z,5
2016-06-12T03:59:02.871Z,5
2016-06-12T04:00:02.859Z,5
2016-06-12T04:01:02.737Z,10
2016-06-12T04:02:02.864Z,10
2016-06-12T04:03:02.883Z,10
2016-06-12T04:04:02.856Z,10
2016-06-12T04:05:02.906Z,10
2016-06-12T04:06:02.893Z,10
2016-06-12T04:07:02.912Z,10
2016-06-12T04:08:02.883Z,10
2016-06-12T04:09:02.902Z,10
2016-06-12T04:10:02.936Z,5
2016-06-12T04:11:02.892Z,5
2016-06-12T04:12:02.911Z,5
2016-06-12T04:13:02.914Z,5
2016-06-12T04:14:02.902Z,5
2016-06-12T04:15:02.764Z,5
2016-06-12T04:16:02.955Z,5
2016-06-12T04:17:02.943Z,5
2016-06-12T04:18:02.899Z,5
2016-06-12T04:19:02.901Z,5
2016-06-12T04:20:02.936Z,5
2016-06-12T04:21:02.955Z,10
2016-06-12T04:22:02.926Z,10
2016-06-12T04:23:02.789Z,10
2016-06-12T04:24:02.901Z,10
2016-06-12T04:25:02.936Z,10
2016-06-12T04:26:02.923Z,15
2016-06-12T04:27:02.957Z,15
2016-06-12T04:28:02.960Z,15
2016-06-12T04:29:02.933Z,15
2016-06-12T04:30:02.936Z,15
2016-06-12T04:31:02.939Z,15
2016-06-12T04:32:02.941Z,15
2016-06-12T04:33:03.038Z,15
2016-06-12T04:34:02.948Z,15
2016-06-12T04:35:02.966Z,15
2016-06-12T04:36:03.891Z,15
2016-06-12T04:37:03.035Z,15
2016-06-12T04:38:02.976Z,15
2016-06-12T04:39:02.978Z,15
2016-06-12T04:40:02.841Z,15
2016-06-12T04:41:02.985Z,15
2016-06-12T04:42:02.988Z,15
2016-06-12T04:43:02.976Z,20
2016-06-12T04:44:02.979Z,20
2016-06-12T04:45:03.013Z,25
2016-06-12T04:46:03.000Z,25
2016-06-12T04:47:03.003Z,30
2016-06-12T04:48:03.022Z,35
2016-06-12T04:49:03.009Z,40
2016-06-12T04:50:02.981Z,45
2016-06-12T04:51:03.562Z,45
2016-06-12T04:52:04.004Z,45
2016-06-12T04:53:03.021Z,45
2016-06-12T04:54:03.056Z,45
2016-06-12T04:55:03.028Z,45
2016-06-12T04:56:02.984Z,45
2016-06-12T04:57:03.049Z,45
2016-06-12T04:58:03.006Z,45
2016-06-12T04:59:03.025Z,45
2016-06-12T05:00:02.887Z,45
2016-06-12T05:01:03.015Z,45
2016-06-12T05:02:03.034Z,45
2016-06-12T05:03:03.052Z,45
2016-06-12T05:04:03.040Z,45
2016-06-12T05:05:03.058Z,45
2016-06-12T05:06:03.875Z,45
2016-06-12T05:07:03.222Z,40
2016-06-12T05:08:03.083Z,40
2016-06-12T05:09:03.070Z,40
2016-06-12T05:10:03.043Z,40
2016-06-12T05:11:03.046Z,40
2016-06-12T05:12:03.032Z,40
2016-06-12T05:13:03.052Z,45
2016-06-12T05:14:03.055Z,45
2016-06-12T05:15:03.042Z,50
2016-06-12T05:16:02.920Z,55
2016-06-12T05:17:03.111Z,55
2016-06-12T05:18:03.098Z,60
2016-06-12T05:19:02.962Z,65
2016-06-12T05:20:03.073Z,65
2016-06-12T05:21:03.889Z,70
2016-06-12T05:22:03.127Z,75
2016-06-12T05:23:03.114Z,80
2016-06-12T05:24:03.148Z,80
2016-06-12T05:25:03.073Z,80
2016-06-12T05:26:03.107Z,85
2016-06-12T05:27:03.095Z,85
2016-06-12T05:28:02.973Z,85
2016-06-12T05:29:03.117Z,80
2016-06-12T05:30:03.104Z,75
2016-06-12T05:31:03.155Z,75
2016-06-12T05:32:03.141Z,75
2016-06-12T05:33:03.145Z,70
2016-06-12T05:34:03.116Z,65
2016-06-12T05:35:03.120Z,65
2016-06-12T05:36:03.513Z,60
2016-06-12T05:37:03.157Z,55
2016-06-12T05:38:03.145Z,50
2016-06-12T05:39:03.179Z,50
2016-06-12T05:40:03.135Z,50
2016-06-12T05:41:03.169Z,50
2016-06-12T05:42:03.172Z,50
2016-06-12T05:43:03.191Z,45
2016-06-12T05:44:03.178Z,45
2016-06-12T05:45:03.150Z,45
2016-06-12T05:46:03.169Z,45
2016-06-12T05:47:03.219Z,45
2016-06-12T05:48:03.175Z,50
2016-06-12T05:49:03.146Z,50
2016-06-12T05:50:03.149Z,55
2016-06-12T05:51:03.528Z,55
2016-06-12T05:52:03.610Z,60
2016-06-12T05:53:03.238Z,70
2016-06-12T05:54:03.194Z,75
2016-06-12T05:55:03.165Z,85
2016-06-12T05:56:03.200Z,95
2016-06-12T05:57:03.234Z,95
2016-06-12T05:58:03.175Z,95
2016-06-12T05:59:03.224Z,90
2016-06-12T06:00:03.040Z,85
2016-06-12T06:01:03.091Z,80
2016-06-12T06:02:03.218Z,85
2016-06-12T06:03:03.050Z,90
2016-06-12T06:04:03.067Z,90
2016-06-12T06:05:03.259Z,95
2016-06-12T06:06:03.245Z,95
2016-06-12T06:07:03.827Z,95
2016-06-12T06:08:03.237Z,95
2016-06-12T06:09:03.271Z,95
2016-06-12T06:10:03.227Z,95
2016-06-12T06:11:03.230Z,100
2016-06-12T06:12:03.280Z,105
2016-06-12T06:13:03.252Z,105
2016-06-12T06:14:03.255Z,110
2016-06-12T06:15:03.259Z,110
2016-06-12T06:16:03.245Z,105
2016-06-12T06:17:03.295Z,100
2016-06-12T06:18:03.236Z,85
2016-06-12T06:19:03.271Z,75
2016-06-12T06:20:03.289Z,70
2016-06-12T06:21:03.494Z,65
2016-06-12T06:22:03.295Z,60
2016-06-12T06:23:03.314Z,60
2016-06-12T06:24:03.270Z,60
2016-06-12T06:25:03.289Z,65
2016-06-12T06:26:03.293Z,65
2016-06-12T06:27:03.357Z,65
2016-06-12T06:28:03.313Z,70
2016-06-12T06:29:03.302Z,70
2016-06-12T06:30:03.336Z,75
2016-06-12T06:31:03.105Z,80
2016-06-12T06:32:03.357Z,85
2016-06-12T06:33:03.329Z,90
2016-06-12T06:34:03.332Z,100
2016-06-12T06:35:03.303Z,105
2016-06-12T06:36:04.573Z,105
2016-06-12T06:37:03.404Z,110
2016-06-12T06:38:03.344Z,115
2016-06-12T06:39:03.363Z,125
2016-06-12T06:40:03.336Z,130
2016-06-12T06:41:03.370Z,135
2016-06-12T06:42:03.356Z,140
2016-06-12T06:43:03.360Z,145
2016-06-12T06:44:03.206Z,155
2016-06-12T06:45:03.351Z,155
2016-06-12T06:46:03.338Z,160
2016-06-12T06:47:03.372Z,160
2016-06-12T06:48:03.391Z,160
2016-06-12T06:49:03.377Z,160
2016-06-12T06:50:03.225Z,165
2016-06-12T06:51:03.337Z,165
2016-06-12T06:52:04.700Z,170
2016-06-12T06:53:03.375Z,170
2016-06-12T06:54:03.346Z,175
2016-06-12T06:55:03.224Z,175
2016-06-12T06:56:03.384Z,180
2016-06-12T06:57:03.466Z,190
2016-06-12T06:58:03.406Z,195
2016-06-12T06:59:03.377Z,200
2016-06-12T07:00:03.412Z,205
2016-06-12T07:01:03.447Z,205
2016-06-12T07:02:03.403Z,210
2016-06-12T07:03:03.265Z,210
2016-06-12T07:04:03.440Z,215
2016-06-12T07:05:03.412Z,220
2016-06-12T07:06:03.415Z,225
2016-06-12T07:07:03.309Z,230
2016-06-12T07:08:03.484Z,235
2016-06-12T07:09:03.440Z,240
2016-06-12T07:10:03.442Z,235
2016-06-12T07:11:03.462Z,240
2016-06-12T07:12:03.512Z,240
2016-06-12T07:13:03.452Z,235
2016-06-12T07:14:03.470Z,230
2016-06-12T07:15:03.490Z,230
2016-06-12T07:16:03.477Z,220
2016-06-12T07:17:03.292Z,215
2016-06-12T07:18:03.483Z,210
2016-06-12T07:19:03.486Z,205
2016-06-12T07:20:03.520Z,200
2016-06-12T07:21:03.476Z,195
2016-06-12T07:22:03.542Z,190
2016-06-12T07:23:03.530Z,185
2016-06-12T07:24:03.502Z,185
2016-06-12T07:25:03.488Z,185
2016-06-12T07:26:03.539Z,180
2016-06-12T07:27:03.526Z,180
2016-06-12T07:28:03.529Z,180
2016-06-12T07:29:03.533Z,180
2016-06-12T07:30:03.520Z,180
2016-06-12T07:31:03.554Z,185
2016-06-12T07:32:03.542Z,185
2016-06-12T07:33:03.591Z,185
2016-06-12T07:34:03.423Z,185
2016-06-12T07:35:03.582Z,185
2016-06-12T07:36:03.538Z,190
2016-06-12T07:37:04.385Z,190
2016-06-12T07:38:03.576Z,190
2016-06-12T07:39:03.548Z,195
2016-06-12T07:40:03.629Z,195
2016-06-12T07:41:03.554Z,190
2016-06-12T07:42:03.635Z,190
2016-06-12T07:43:03.607Z,190
2016-06-12T07:44:03.610Z,180
2016-06-12T07:45:03.613Z,175
2016-06-12T07:46:03.585Z,170
2016-06-12T07:47:03.681Z,165
2016-06-12T07:48:03.434Z,160
2016-06-12T07:49:03.656Z,155
2016-06-12T07:50:03.284Z,155
2016-06-12T07:51:03.615Z,155
2016-06-12T07:52:04.993Z,155
2016-06-12T07:53:03.653Z,160
2016-06-12T07:54:03.625Z,160
2016-06-12T07:55:03.675Z,155
2016-06-12T07:56:03.506Z,155
2016-06-12T07:57:03.697Z,150
2016-06-12T07:58:03.653Z,150
2016-06-12T07:59:03.687Z,145
2016-06-12T08:00:03.643Z,150
2016-06-12T08:01:03.693Z,150
2016-06-12T08:02:03.744Z,150
2016-06-12T08:03:03.652Z,155
2016-06-12T08:04:03.641Z,155
2016-06-12T08:05:03.674Z,160
2016-06-12T08:06:03.692Z,160
2016-06-12T08:07:03.978Z,155
2016-06-12T08:08:03.683Z,150
2016-06-12T08:09:03.718Z,140
2016-06-12T08:10:03.690Z,135
2016-06-12T08:11:03.693Z,135
2016-06-12T08:12:03.711Z,135
2016-06-12T08:13:03.714Z,140
2016-06-12T08:14:03.702Z,140
2016-06-12T08:15:03.705Z,135
2016-06-12T08:16:03.755Z,130
2016-06-12T08:17:03.805Z,130
2016-06-12T08:18:03.745Z,135
2016-06-12T08:19:03.765Z,140
2016-06-12T08:20:03.767Z,145
2016-06-12T08:21:03.771Z,150
2016-06-12T08:22:04.321Z,155
2016-06-12T08:23:03.777Z,165
2016-06-12T08:24:03.780Z,170
2016-06-12T08:25:03.767Z,180
2016-06-12T08:26:03.771Z,185
2016-06-12T08:27:03.836Z,190
2016-06-12T08:28:03.792Z,195
2016-06-12T08:29:03.780Z,200
2016-06-12T08:30:03.782Z,195
2016-06-12T08:31:03.786Z,195
2016-06-12T08:32:03.679Z,195
2016-06-12T08:33:03.791Z,195
2016-06-12T08:34:03.811Z,195
2016-06-12T08:35:03.625Z,200
2016-06-12T08:36:03.832Z,200
2016-06-12T08:37:04.163Z,200
2016-06-12T08:38:03.807Z,200
2016-06-12T08:39:03.826Z,200
2016-06-12T08:40:03.829Z,195
2016-06-12T08:41:03.847Z,195
2016-06-12T08:42:03.898Z,190
2016-06-12T08:43:03.839Z,180
2016-06-12T08:44:03.841Z,180
2016-06-12T08:45:03.735Z,180
2016-06-12T08:46:03.862Z,185
2016-06-12T08:47:03.928Z,190
2016-06-12T08:48:03.854Z,200
2016-06-12T08:49:03.872Z,205
2016-06-12T08:50:03.891Z,210
2016-06-12T08:51:03.878Z,215
2016-06-12T08:52:04.006Z,215
2016-06-12T08:53:03.712Z,220
2016-06-12T08:54:03.888Z,225
2016-06-12T08:55:03.891Z,225
2016-06-12T08:56:03.940Z,225
2016-06-12T08:57:03.960Z,230
2016-06-12T08:58:03.900Z,235
2016-06-12T08:59:03.919Z,235
2016-06-12T09:00:03.921Z,235
2016-06-12T09:01:03.925Z,230
2016-06-12T09:02:04.022Z,220
2016-06-12T09:03:03.931Z,215
2016-06-12T09:04:03.918Z,205
2016-06-12T09:05:03.937Z,195
2016-06-12T09:06:03.924Z,200
2016-06-12T09:07:04.021Z,195
2016-06-12T09:08:03.947Z,195
2016-06-12T09:09:03.949Z,190
2016-06-12T09:10:03.953Z,190
2016-06-12T09:11:04.190Z,195
2016-06-12T09:12:04.005Z,200
2016-06-12T09:13:03.992Z,205
2016-06-12T09:14:03.997Z,210
2016-06-12T09:15:04.025Z,225
2016-06-12T09:16:04.084Z,230
2016-06-12T09:17:04.238Z,230
2016-06-12T09:18:04.157Z,220
2016-06-12T09:19:04.200Z,205
2016-06-12T09:20:04.077Z,210
2016-06-12T09:21:04.266Z,200
2016-06-12T09:22:04.487Z,195
2016-06-12T09:23:04.864Z,195
2016-06-12T09:24:04.319Z,185
2016-06-12T09:25:04.296Z,160
2016-06-12T09:26:04.304Z,140
2016-06-12T09:27:04.358Z,135
2016-06-12T09:28:04.352Z,130
2016-06-12T09:29:04.344Z,115
2016-06-12T09:30:04.380Z,110
2016-06-12T09:31:04.400Z,110
2016-06-12T09:32:04.375Z,110
2016-06-12T09:33:04.379Z,110
2016-06-12T09:34:04.353Z,115
2016-06-12T09:35:04.450Z,110
2016-06-12T09:36:04.236Z,115
2016-06-12T09:37:05.411Z,115
2016-06-12T09:38:04.430Z,130
2016-06-12T09:39:04.388Z,130
2016-06-12T09:40:04.391Z,135
2016-06-12T09:41:04.410Z,145
2016-06-12T09:42:04.445Z,155
2016-06-12T09:43:04.432Z,170
2016-06-12T09:44:04.436Z,185
2016-06-12T09:45:04.424Z,200
2016-06-12T09:46:04.271Z,220
2016-06-12T09:47:04.352Z,245
2016-06-12T09:48:04.464Z,275
2016-06-12T09:49:04.342Z,295
2016-06-12T09:50:04.454Z,320
2016-06-12T09:51:04.458Z,335
2016-06-12T09:52:04.945Z,340
2016-06-12T09:53:04.463Z,355
2016-06-12T09:54:04.452Z,380
2016-06-12T09:55:04.486Z,390
2016-06-12T09:56:04.519Z,410
2016-06-12T09:57:04.569Z,405
2016-06-12T09:58:04.479Z,405
2016-06-12T09:59:04.482Z,405
2016-06-12T10:00:04.532Z,400
2016-06-12T10:01:04.504Z,400
2016-06-12T10:02:04.491Z,395
2016-06-12T10:03:04.557Z,400
2016-06-12T10:04:04.497Z,400
2016-06-12T10:05:04.516Z,400
2016-06-12T10:06:04.473Z,400
2016-06-12T10:07:04.569Z,400
2016-06-12T10:08:04.759Z,405
2016-06-12T10:09:04.529Z,400
2016-06-12T10:10:04.548Z,400
2016-06-12T10:11:04.378Z,390
2016-06-12T10:12:04.538Z,380
2016-06-12T10:13:04.557Z,370
2016-06-12T10:14:04.560Z,355
2016-06-12T10:15:04.594Z,345
2016-06-12T10:16:04.613Z,330
2016-06-12T10:17:04.600Z,325
2016-06-12T10:18:04.587Z,320
2016-06-12T10:19:04.607Z,320
2016-06-12T10:20:04.609Z,330
2016-06-12T10:21:04.628Z,340
2016-06-12T10:22:04.600Z,350
2016-06-12T10:23:04.603Z,365
2016-06-12T10:24:04.684Z,365
2016-06-12T10:25:04.641Z,360
2016-06-12T10:26:04.644Z,360
2016-06-12T10:27:04.678Z,375
2016-06-12T10:28:04.650Z,400
2016-06-12T10:29:04.637Z,400
2016-06-12T10:30:04.656Z,385
2016-06-12T10:31:04.691Z,390
2016-06-12T10:32:04.725Z,380
2016-06-12T10:33:04.666Z,375
2016-06-12T10:34:04.668Z,350
2016-06-12T10:35:04.687Z,340
2016-06-12T10:36:04.706Z,335
2016-06-12T10:37:04.709Z,340
2016-06-12T10:38:04.743Z,335
2016-06-12T10:39:04.715Z,340
2016-06-12T10:40:04.718Z,365
2016-06-12T10:41:04.705Z,375
2016-06-12T10:42:04.755Z,385
2016-06-12T10:43:04.742Z,405
2016-06-12T10:44:04.730Z,415
2016-06-12T10:45:04.748Z,420
2016-06-12T10:46:04.767Z,425
2016-06-12T10:47:04.801Z,425
2016-06-12T10:48:04.774Z,410
2016-06-12T10:49:04.761Z,395
2016-06-12T10:50:04.810Z,370
2016-06-12T10:51:04.799Z,365
2016-06-12T10:52:04.864Z,355
2016-06-12T10:53:05.772Z,345
2016-06-12T10:54:04.651Z,350
2016-06-12T10:55:04.811Z,355
2016-06-12T10:56:04.814Z,355
2016-06-12T10:57:04.785Z,350
2016-06-12T10:58:04.821Z,345
2016-06-12T10:59:04.807Z,340
2016-06-12T11:00:04.841Z,340
2016-06-12T11:01:04.829Z,345
2016-06-12T11:02:04.926Z,350
2016-06-12T11:03:04.867Z,370
2016-06-12T11:04:04.728Z,395
2016-06-12T11:05:04.904Z,430
2016-06-12T11:06:04.892Z,415
2016-06-12T11:07:04.940Z,390
2016-06-12T11:08:05.273Z,340
2016-06-12T11:09:04.901Z,280
2016-06-12T11:10:04.747Z,250
2016-06-12T11:11:04.953Z,200
2016-06-12T11:12:04.816Z,170
2016-06-12T11:13:04.975Z,155
2016-06-12T11:14:04.963Z,145
2016-06-12T11:15:07.920Z,130
2016-06-12T11:16:04.969Z,125
2016-06-12T11:17:05.004Z,120
2016-06-12T11:18:04.818Z,110
2016-06-12T11:19:04.963Z,105
2016-06-12T11:20:04.950Z,115
2016-06-12T11:21:07.984Z,125
2016-06-12T11:22:04.972Z,135
2016-06-12T11:23:05.194Z,145
2016-06-12T11:24:05.009Z,155
2016-06-12T11:25:05.012Z,175
2016-06-12T11:26:04.999Z,200
2016-06-12T11:27:05.081Z,240
2016-06-12T11:28:05.052Z,280
2016-06-12T11:29:05.213Z,315
2016-06-12T11:30:05.027Z,330
2016-06-12T11:31:05.046Z,340
2016-06-12T11:32:05.112Z,360
2016-06-12T11:33:05.068Z,395
2016-06-12T11:34:05.040Z,420
2016-06-12T11:35:05.059Z,430
2016-06-12T11:36:05.077Z,435
2016-06-12T11:37:05.409Z,440
2016-06-12T11:38:04.819Z,450
2016-06-12T11:39:05.072Z,455
2016-06-12T11:40:05.106Z,470
2016-06-12T11:41:05.124Z,465
2016-06-12T11:42:05.127Z,470
2016-06-12T11:43:05.161Z,475
2016-06-12T11:44:05.148Z,470
2016-06-12T11:45:05.121Z,465
2016-06-12T11:46:04.968Z,450
2016-06-12T11:47:05.143Z,455
2016-06-12T11:48:05.130Z,455
2016-06-12T11:49:05.164Z,445
2016-06-12T11:50:05.120Z,400
2016-06-12T11:51:05.155Z,385
2016-06-12T11:52:05.361Z,390
2016-06-12T11:53:05.396Z,400
2016-06-12T11:54:05.195Z,410
2016-06-12T11:55:05.199Z,420
2016-06-12T11:56:05.171Z,470
2016-06-12T11:57:05.235Z,455
2016-06-12T11:58:05.191Z,455
2016-06-12T11:59:05.226Z,480
2016-06-12T12:00:05.211Z,455
2016-06-12T12:01:05.214Z,460
2016-06-12T12:02:05.217Z,470
2016-06-12T12:03:05.220Z,455
2016-06-12T12:04:05.207Z,450
2016-06-12T12:05:05.241Z,455
2016-06-12T12:06:05.244Z,455
2016-06-12T12:07:05.294Z,470
2016-06-12T12:08:06.644Z,460
2016-06-12T12:09:05.238Z,445
2016-06-12T12:10:05.288Z,430
2016-06-12T12:11:05.260Z,425
2016-06-12T12:12:05.387Z,425
2016-06-12T12:13:05.281Z,435
2016-06-12T12:14:05.285Z,445
2016-06-12T12:15:05.288Z,450
2016-06-12T12:16:05.354Z,455
2016-06-12T12:17:05.373Z,490
2016-06-12T12:18:05.297Z,505
2016-06-12T12:19:05.316Z,510
2016-06-12T12:20:05.335Z,515
2016-06-12T12:21:05.338Z,515
2016-06-12T12:22:05.388Z,510
2016-06-12T12:23:05.469Z,505
2016-06-12T12:24:05.379Z,465
2016-06-12T12:25:05.349Z,475
2016-06-12T12:26:05.369Z,500
2016-06-12T12:27:05.388Z,510
2016-06-12T12:28:05.390Z,495
2016-06-12T12:29:05.394Z,465
2016-06-12T12:30:05.412Z,430
2016-06-12T12:31:05.415Z,405
2016-06-12T12:32:05.388Z,385
2016-06-12T12:33:05.421Z,350
2016-06-12T12:34:05.410Z,335
2016-06-12T12:35:05.444Z,300
2016-06-12T12:36:05.430Z,295
2016-06-12T12:37:05.480Z,310
2016-06-12T12:38:06.296Z,320
2016-06-12T12:39:05.455Z,315
2016-06-12T12:40:05.443Z,295
2016-06-12T12:41:05.493Z,270
2016-06-12T12:42:05.526Z,245
2016-06-12T12:43:05.483Z,210
2016-06-12T12:44:05.330Z,180
2016-06-12T12:45:05.522Z,145
2016-06-12T12:46:05.492Z,125
2016-06-12T12:47:05.558Z,105
2016-06-12T12:48:05.514Z,95
2016-06-12T12:49:05.533Z,100
2016-06-12T12:50:05.568Z,110
2016-06-12T12:51:05.524Z,120
2016-06-12T12:52:05.558Z,135
2016-06-12T12:53:05.764Z,155
2016-06-12T12:54:05.846Z,165
2016-06-12T12:55:05.567Z,180
2016-06-12T12:56:05.570Z,195
2016-06-12T12:57:05.620Z,205
2016-06-12T12:58:05.608Z,215
2016-06-12T12:59:05.579Z,220
2016-06-12T13:00:05.443Z,215
2016-06-12T13:01:05.601Z,205
2016-06-12T13:02:08.702Z,200
2016-06-12T13:03:05.624Z,190
2016-06-12T13:04:05.813Z,175
2016-06-12T13:05:05.644Z,160
2016-06-12T13:06:05.461Z,145
2016-06-12T13:07:05.478Z,135
2016-06-12T13:08:07.482Z,135
2016-06-12T13:09:06.079Z,140
2016-06-12T13:10:05.488Z,140
2016-06-12T13:11:05.632Z,150
2016-06-12T13:12:05.652Z,160
2016-06-12T13:13:08.672Z,180
2016-06-12T13:14:05.672Z,195
2016-06-12T13:15:05.660Z,210
2016-06-12T13:16:05.694Z,220
2016-06-12T13:17:05.587Z,230
2016-06-12T13:18:05.685Z,240
2016-06-12T13:19:08.704Z,245
2016-06-12T13:20:05.691Z,250
2016-06-12T13:21:05.679Z,250
2016-06-12T13:22:05.807Z,245
2016-06-12T13:23:06.481Z,240
2016-06-12T13:24:05.469Z,235
2016-06-12T13:25:05.707Z,235
2016-06-12T13:26:05.694Z,235
2016-06-12T13:27:05.509Z,250
2016-06-12T13:28:05.747Z,260
2016-06-12T13:29:05.749Z,265
2016-06-12T13:30:05.799Z,275
2016-06-12T13:31:05.756Z,290
2016-06-12T13:32:05.743Z,310
2016-06-12T13:33:05.746Z,320
2016-06-12T13:34:05.594Z,330
2016-06-12T13:35:05.784Z,340
2016-06-12T13:36:05.770Z,340
2016-06-12T13:37:05.759Z,340
2016-06-12T13:38:05.809Z,330
2016-06-12T13:39:06.344Z,325
2016-06-12T13:40:05.769Z,315
2016-06-12T13:41:05.771Z,320
2016-06-12T13:42:05.774Z,325
2016-06-12T13:43:05.808Z,325
2016-06-12T13:44:05.811Z,330
2016-06-12T13:45:05.815Z,335
2016-06-12T13:46:05.834Z,335
2016-06-12T13:47:05.884Z,335
2016-06-12T13:48:05.824Z,330
2016-06-12T13:49:05.842Z,330
2016-06-12T13:50:05.830Z,320
2016-06-12T13:51:05.849Z,315
2016-06-12T13:52:05.900Z,305
2016-06-12T13:53:09.120Z,295
2016-06-12T13:54:06.530Z,285
2016-06-12T13:55:05.846Z,275
2016-06-12T13:56:05.865Z,265
2016-06-12T13:57:05.882Z,255
2016-06-12T13:58:05.871Z,255
2016-06-12T13:59:05.874Z,255
2016-06-12T14:00:06.002Z,265
2016-06-12T14:01:05.927Z,280
2016-06-12T14:02:06.086Z,290
2016-06-12T14:03:06.433Z,295
2016-06-12T14:04:06.326Z,295
2016-06-12T14:05:05.939Z,295
2016-06-12T14:06:06.285Z,290
2016-06-12T14:07:06.195Z,290
2016-06-12T14:08:07.448Z,280